Time;durP1;ratioP1;P1;durP2;ratioP2;P2;SDS_P1;SDS_P2;PMS_P1;PMS_P2;Temp;Humidity;BMP_temperature;BMP_pressure;BME280_temperature;BME280_humidity;BME280_pressure;Samples;Min_cycle;Max_cycle;Signal;HPM_P1;HPM_P2
2023/06/08 00:00:07;;;;;;;;;;;;;;;19.43;35.50;100771.38;4992764;27;98412;-68
2023/06/08 00:02:35;;;;;;;;;;;;;;;19.41;35.76;100765.41;4991558;27;99840;-72
2023/06/08 00:05:02;;;;;;;;;;;;;;;19.38;35.54;100770.41;4991390;27;98394;-72
2023/06/08 00:07:29;;;;;;;;;;;;;;;19.35;35.64;100771.03;5018088;27;98570;-72
2023/06/08 00:09:58;;;;;;;;;;;;;;;19.33;35.80;100767.00;4987311;27;98494;-72
2023/06/08 00:12:24;;;;;;;;;;;;;;;19.31;35.86;100774.72;5006058;27;98356;-68
2023/06/08 00:14:50;;;;;;;;;;;;;;;19.31;35.69;100772.00;5002954;27;97910;-72
2023/06/08 00:17:17;;;;;;;;;;;;;;;19.31;35.67;100772.00;5003087;27;98356;-68
2023/06/08 00:19:43;;;;;;;;;;;;;;;19.30;35.84;100771.19;5009768;27;98724;-68
2023/06/08 00:22:12;;;;;;;;;;;;;;;19.28;35.68;100769.88;4990629;27;98868;-72
2023/06/08 00:24:39;;;;;;;;;;;;;;;19.25;35.60;100768.59;5004386;27;98121;-73
2023/06/08 00:27:06;;;;;;;;;;;;;;;19.25;35.77;100773.25;5003999;27;97907;-72
2023/06/08 00:29:33;;;;;;;;;;;;;;;19.25;35.77;100763.13;5007233;27;98099;-68
2023/06/08 00:32:00;;;;;;;;;;;;;;;19.25;35.66;100763.13;5002817;27;98106;-68
2023/06/08 00:34:27;;;;;;;;;;;;;;;19.26;35.90;100759.28;4991340;27;98014;-68
2023/06/08 00:36:54;;;;;;;;;;;;;;;19.25;35.67;100754.94;5022874;27;98276;-68
2023/06/08 00:39:21;;;;;;;;;;;;;;;19.27;35.81;100746.44;4991705;27;99929;-72
2023/06/08 00:41:48;;;;;;;;;;;;;;;19.28;35.81;100754.28;4989987;27;98244;-68
2023/06/08 00:44:14;;;;;;;;;;;;;;;19.28;35.84;100754.28;5004025;27;98239;-72
2023/06/08 00:46:41;;;;;;;;;;;;;;;19.29;35.61;100755.91;5016723;27;98354;-68
2023/06/08 00:49:08;;;;;;;;;;;;;;;19.30;35.71;100751.25;4987247;27;98683;-68
2023/06/08 00:51:36;;;;;;;;;;;;;;;19.31;35.98;100750.13;4993083;27;97882;-73
2023/06/08 00:54:02;;;;;;;;;;;;;;;19.31;35.80;100744.66;4989398;27;98797;-68
2023/06/08 00:56:31;;;;;;;;;;;;;;;19.31;35.96;100744.66;4988667;27;97910;-68
2023/06/08 00:59:01;;;;;;;;;;;;;;;19.31;35.67;100748.19;4988157;27;99757;-68
2023/06/08 01:01:30;;;;;;;;;;;;;;;19.32;36.00;100749.81;4990890;27;98225;-74
2023/06/08 01:04:05;;;;;;;;;;;;;;;19.32;35.81;100746.25;4991216;27;98186;-72
2023/06/08 01:06:36;;;;;;;;;;;;;;;19.31;36.00;100742.72;4990695;27;98108;-72
2023/06/08 01:09:29;;;;;;;;;;;;;;;19.30;35.66;100732.94;4984226;27;99174;-72
2023/06/08 01:12:20;;;;;;;;;;;;;;;19.29;35.71;100739.50;5001389;27;98080;-68
2023/06/08 01:15:00;;;;;;;;;;;;;;;19.28;35.78;100735.16;5004319;27;99627;-73
2023/06/08 01:17:35;;;;;;;;;;;;;;;19.28;36.01;100734.38;5004704;27;98368;-68
2023/06/08 01:20:13;;;;;;;;;;;;;;;19.28;35.91;100739.84;5005861;27;98359;-68
2023/06/08 01:22:58;;;;;;;;;;;;;;;19.27;35.82;100736.31;5005741;27;98073;-72
2023/06/08 01:25:28;;;;;;;;;;;;;;;19.27;35.69;100735.50;4989283;27;99830;-72
2023/06/08 01:28:00;;;;;;;;;;;;;;;19.27;36.02;100730.03;5004064;27;99463;-68
2023/06/08 01:30:28;;;;;;;;;;;;;;;19.27;36.03;100727.31;4989185;27;97958;-73
2023/06/08 01:32:54;;;;;;;;;;;;;;;19.25;36.06;100721.34;4990593;27;98320;-72
2023/06/08 01:35:21;;;;;;;;;;;;;;;19.25;36.07;100729.53;5002434;27;99570;-72
2023/06/08 01:37:50;;;;;;;;;;;;;;;19.24;35.91;100726.00;5004264;27;98136;-68
2023/06/08 01:40:33;;;;;;;;;;;;;;;19.23;35.89;100724.41;4990669;27;99838;-72
2023/06/08 01:43:00;;;;;;;;;;;;;;;19.23;36.01;100724.41;4991383;27;97882;-73
2023/06/08 01:45:28;;;;;;;;;;;;;;;19.20;35.90;100711.38;4986310;27;98381;-67
2023/06/08 01:48:05;;;;;;;;;;;;;;;19.19;35.92;100717.97;4987715;27;98248;-68
2023/06/08 01:50:32;;;;;;;;;;;;;;;19.18;36.03;100710.91;5001518;27;98220;-68
2023/06/08 01:52:59;;;;;;;;;;;;;;;19.16;35.87;100713.13;5005555;27;100604;-72
2023/06/08 01:55:29;;;;;;;;;;;;;;;19.15;35.99;100708.78;5019237;27;98172;-72
2023/06/08 01:57:56;;;;;;;;;;;;;;;19.11;36.09;100703.16;4999154;27;98625;-72
2023/06/08 02:00:23;;;;;;;;;;;;;;;19.10;36.07;100711.69;4988502;27;98559;-72
2023/06/08 02:02:50;;;;;;;;;;;;;;;19.08;35.87;100703.78;4992497;27;97931;-72
2023/06/08 02:05:17;;;;;;;;;;;;;;;19.06;36.17;100707.97;4991943;27;98168;-68
2023/06/08 02:07:44;;;;;;;;;;;;;;;19.04;35.92;100702.81;4987804;27;98168;-67
2023/06/08 02:10:11;;;;;;;;;;;;;;;19.02;36.12;100705.09;4990419;27;102421;-67
2023/06/08 02:12:38;;;;;;;;;;;;;;;19.01;36.15;100706.19;4990052;27;98097;-72
2023/06/08 02:15:05;;;;;;;;;;;;;;;18.99;36.02;100702.97;4990578;27;98130;-72
2023/06/08 02:17:35;;;;;;;;;;;;;;;18.97;35.97;100705.22;4991274;27;98050;-72
2023/06/08 02:20:06;;;;;;;;;;;;;;;18.96;36.27;100711.00;4984896;27;98271;-67
2023/06/08 02:22:33;;;;;;;;;;;;;;;18.95;36.11;100706.66;5002005;27;99371;-72
2023/06/08 02:24:59;;;;;;;;;;;;;;;18.93;36.06;100706.16;5016130;27;98026;-72
2023/06/08 02:27:27;;;;;;;;;;;;;;;18.91;36.16;100711.16;4988433;27;98001;-72
2023/06/08 02:29:54;;;;;;;;;;;;;;;18.89;36.25;100708.72;4986726;27;98009;-67
2023/06/08 02:32:21;;;;;;;;;;;;;;;18.87;36.09;100708.25;5002928;27;98325;-67
2023/06/08 02:34:55;;;;;;;;;;;;;;;18.84;36.16;100708.88;4988402;27;97881;-67
2023/06/08 02:37:23;;;;;;;;;;;;;;;18.84;36.23;100708.88;4988165;27;98132;-67
2023/06/08 02:39:49;;;;;;;;;;;;;;;18.86;36.19;100703.91;5018125;27;97950;-73
2023/06/08 02:42:18;;;;;;;;;;;;;;;18.92;36.30;100712.75;4987475;27;100959;-67
2023/06/08 02:44:45;;;;;;;;;;;;;;;18.98;36.37;100711.47;4990915;27;98132;-67
2023/06/08 02:47:12;;;;;;;;;;;;;;;19.04;36.21;100702.03;4988893;27;98409;-72
2023/06/08 02:49:38;;;;;;;;;;;;;;;19.08;36.35;100709.25;4989850;27;97905;-72
2023/06/08 02:52:05;;;;;;;;;;;;;;;19.10;36.18;100711.69;5005064;27;98153;-67
2023/06/08 02:54:31;;;;;;;;;;;;;;;19.10;36.24;100704.28;4998875;27;99000;-67
2023/06/08 02:56:57;;;;;;;;;;;;;;;19.13;36.16;100711.03;4985696;27;99296;-72
2023/06/08 02:59:24;;;;;;;;;;;;;;;19.13;36.28;100714.56;5000157;27;97957;-68
2023/06/08 03:01:53;;;;;;;;;;;;;;;19.14;36.16;100712.66;4989205;27;98134;-67
2023/06/08 03:04:28;;;;;;;;;;;;;;;19.15;36.22;100714.25;5001601;27;98400;-67
2023/06/08 03:06:54;;;;;;;;;;;;;;;19.15;36.14;100708.78;4983842;27;98120;-67
2023/06/08 03:09:29;;;;;;;;;;;;;;;19.14;36.22;100707.19;4989287;27;98135;-72
2023/06/08 03:11:56;;;;;;;;;;;;;;;19.15;36.26;100706.06;5006304;27;98706;-67
2023/06/08 03:14:28;;;;;;;;;;;;;;;19.14;36.34;100701.72;4988021;27;98122;-68
2023/06/08 03:16:57;;;;;;;;;;;;;;;19.14;36.25;100696.28;4983175;27;98662;-67
2023/06/08 03:19:24;;;;;;;;;;;;;;;19.13;36.33;100698.16;4999747;27;97949;-73
2023/06/08 03:21:51;;;;;;;;;;;;;;;19.13;36.33;100700.09;4999559;27;98579;-68
2023/06/08 03:24:20;;;;;;;;;;;;;;;19.13;36.40;100702.84;4997046;27;99146;-73
2023/06/08 03:26:47;;;;;;;;;;;;;;;19.13;36.37;100705.56;4989014;27;98415;-73
2023/06/08 03:29:14;;;;;;;;;;;;;;;19.12;36.25;100714.91;4984870;27;98138;-73
2023/06/08 03:31:40;;;;;;;;;;;;;;;19.11;36.10;100700.44;4988093;27;98120;-67
2023/06/08 03:34:07;;;;;;;;;;;;;;;19.12;36.34;100714.91;4987703;27;98217;-73
2023/06/08 03:36:35;;;;;;;;;;;;;;;19.11;36.18;100700.44;4994497;27;98046;-68
2023/06/08 03:39:02;;;;;;;;;;;;;;;19.11;36.24;100705.91;4985938;27;97966;-73
2023/06/08 03:41:28;;;;;;;;;;;;;;;19.11;36.20;100700.44;4997828;27;98255;-68
2023/06/08 03:43:55;;;;;;;;;;;;;;;19.09;36.55;100699.13;4989106;27;98060;-73
2023/06/08 03:46:22;;;;;;;;;;;;;;;19.08;36.32;100692.88;5022869;27;97835;-73
2023/06/08 03:48:48;;;;;;;;;;;;;;;19.06;36.37;100691.56;4991010;27;97999;-73
2023/06/08 03:51:16;;;;;;;;;;;;;;;19.05;36.37;100690.78;4985258;27;98094;-67
2023/06/08 03:53:42;;;;;;;;;;;;;;;19.05;36.44;100696.22;5001921;27;97924;-72
2023/06/08 03:56:09;;;;;;;;;;;;;;;19.05;36.39;100693.50;4993261;27;98061;-73
2023/06/08 03:58:35;;;;;;;;;;;;;;;19.06;36.27;100694.31;4990068;27;97969;-73
2023/06/08 04:01:02;;;;;;;;;;;;;;;19.06;36.48;100694.31;4994908;27;98034;-67
2023/06/08 04:03:29;;;;;;;;;;;;;;;19.07;36.34;100698.66;5002661;27;98013;-67
2023/06/08 04:05:56;;;;;;;;;;;;;;;19.06;36.33;100686.09;4991206;27;98191;-67
2023/06/08 04:08:22;;;;;;;;;;;;;;;19.07;36.31;100690.47;5000664;27;98488;-67
2023/06/08 04:10:49;;;;;;;;;;;;;;;19.06;36.45;100684.19;4995054;27;98132;-71
2023/06/08 04:13:15;;;;;;;;;;;;;;;19.07;36.33;100685.00;4993200;27;98785;-73
2023/06/08 04:15:41;;;;;;;;;;;;;;;19.07;36.43;100685.00;5006119;27;98253;-67
2023/06/08 04:18:08;;;;;;;;;;;;;;;19.08;36.45;100683.88;5003611;27;98154;-67
2023/06/08 04:20:35;;;;;;;;;;;;;;;19.09;36.28;100680.00;5002141;27;98331;-73
2023/06/08 04:23:02;;;;;;;;;;;;;;;19.11;36.41;100686.78;4990957;27;98115;-67
2023/06/08 04:25:29;;;;;;;;;;;;;;;19.15;36.20;100686.13;4987766;27;98142;-68
2023/06/08 04:27:56;;;;;;;;;;;;;;;19.19;36.22;100684.38;4985345;27;98120;-74
2023/06/08 04:30:23;;;;;;;;;;;;;;;19.23;36.23;100685.34;4991253;27;98319;-73
2023/06/08 04:32:50;;;;;;;;;;;;;;;19.27;36.08;100691.78;4990960;27;98488;-67
2023/06/08 04:35:17;;;;;;;;;;;;;;;19.31;36.29;100690.00;4986966;27;99435;-73
2023/06/08 04:37:44;;;;;;;;;;;;;;;19.35;36.13;100678.13;4992146;27;97925;-67
2023/06/08 04:40:11;;;;;;;;;;;;;;;19.41;36.20;100686.94;4989193;27;98083;-67
2023/06/08 04:42:39;;;;;;;;;;;;;;;19.48;36.03;100683.75;4992115;27;99463;-67
2023/06/08 04:45:08;;;;;;;;;;;;;;;19.55;36.02;100684.88;4991527;27;97956;-67
2023/06/08 04:47:35;;;;;;;;;;;;;;;19.65;36.02;100682.94;4993581;27;99620;-73
2023/06/08 04:50:03;;;;;;;;;;;;;;;19.75;35.90;100682.63;4993321;27;97875;-73
2023/06/08 04:52:30;;;;;;;;;;;;;;;19.85;35.89;100683.09;5002166;27;98159;-67
2023/06/08 04:55:01;;;;;;;;;;;;;;;20.01;35.81;100680.66;5007115;27;98488;-67
2023/06/08 04:57:27;;;;;;;;;;;;;;;20.15;35.68;100680.44;4991823;27;98051;-73
2023/06/08 04:59:54;;;;;;;;;;;;;;;20.27;35.63;100694.25;4989139;27;98124;-73
2023/06/08 05:02:21;;;;;;;;;;;;;;;20.40;35.57;100691.66;4989952;27;98257;-67
2023/06/08 05:04:47;;;;;;;;;;;;;;;20.51;35.56;100701.91;5005241;27;98271;-73
2023/06/08 05:07:14;;;;;;;;;;;;;;;20.61;35.53;100700.78;4991315;27;98616;-67
2023/06/08 05:09:40;;;;;;;;;;;;;;;20.65;35.39;100698.97;4999691;27;98532;-68
2023/06/08 05:12:07;;;;;;;;;;;;;;;20.75;35.47;100693.13;4986821;27;99954;-73
2023/06/08 05:14:33;;;;;;;;;;;;;;;20.89;35.24;100694.84;4967778;27;99487;-67
2023/06/08 05:17:00;;;;;;;;;;;;;;;21.11;35.17;100696.47;4969563;27;98059;-73
2023/06/08 05:19:26;;;;;;;;;;;;;;;21.37;35.05;100688.09;4983205;27;98129;-73
2023/06/08 05:21:53;;;;;;;;;;;;;;;21.63;34.86;100687.88;4986503;27;100498;-73
2023/06/08 05:24:20;;;;;;;;;;;;;;;21.78;34.92;100692.75;4985286;27;98982;-68
2023/06/08 05:26:47;;;;;;;;;;;;;;;22.01;34.77;100690.41;4969538;27;98155;-68
2023/06/08 05:29:13;;;;;;;;;;;;;;;22.22;34.66;100685.69;4969190;27;99508;-67
2023/06/08 05:31:40;;;;;;;;;;;;;;;22.45;34.45;100688.81;4962236;27;98104;-68
2023/06/08 05:34:06;;;;;;;;;;;;;;;22.65;34.60;100691.78;4966638;27;98954;-68
2023/06/08 05:36:33;;;;;;;;;;;;;;;22.69;34.41;100692.72;4981952;27;98012;-74
2023/06/08 05:39:03;;;;;;;;;;;;;;;22.90;34.56;100689.81;4969799;27;98837;-68
2023/06/08 05:41:30;;;;;;;;;;;;;;;23.17;34.16;100685.59;4965344;27;98567;-73
2023/06/08 05:43:57;;;;;;;;;;;;;;;23.27;34.43;100698.84;4968114;27;99353;-68
2023/06/08 05:46:23;;;;;;;;;;;;;;;23.30;34.46;100689.91;4970365;27;99209;-73
2023/06/08 05:48:51;;;;;;;;;;;;;;;23.31;34.38;100690.72;4968439;27;97979;-73
2023/06/08 05:51:17;;;;;;;;;;;;;;;23.34;34.48;100695.50;4985190;27;98063;-68
2023/06/08 05:53:44;;;;;;;;;;;;;;;23.44;34.61;100693.06;4965336;27;98173;-73
2023/06/08 05:56:10;;;;;;;;;;;;;;;23.57;34.47;100701.28;4965145;27;98091;-73
2023/06/08 05:58:37;;;;;;;;;;;;;;;23.71;34.38;100690.72;4965098;27;98217;-73
2023/06/08 06:01:07;;;;;;;;;;;;;;;23.85;34.26;100695.81;4969002;27;98260;-73
2023/06/08 06:03:34;;;;;;;;;;;;;;;24.21;34.28;100686.56;4981570;27;99072;-68
2023/06/08 06:06:01;;;;;;;;;;;;;;;24.47;33.79;100692.34;4969959;27;98315;-69
2023/06/08 06:08:27;;;;;;;;;;;;;;;25.02;33.95;100694.41;4964318;27;98206;-73
2023/06/08 06:10:54;;;;;;;;;;;;;;;25.68;33.20;100691.53;4982569;27;98971;-69
2023/06/08 06:13:21;;;;;;;;;;;;;;;25.83;33.46;100697.34;4985013;27;99063;-73
2023/06/08 06:15:47;;;;;;;;;;;;;;;26.39;33.05;100689.28;5004393;27;98029;-73
2023/06/08 06:18:14;;;;;;;;;;;;;;;27.07;32.83;100686.78;4990687;27;98635;-69
2023/06/08 06:20:40;;;;;;;;;;;;;;;27.06;33.00;100697.06;4988377;27;98338;-69
2023/06/08 06:23:06;;;;;;;;;;;;;;;27.52;32.68;100704.41;4997304;27;97901;-74
2023/06/08 06:25:35;;;;;;;;;;;;;;;28.46;32.22;100695.94;4988650;27;98680;-69
2023/06/08 06:28:02;;;;;;;;;;;;;;;28.92;32.51;100696.25;4995202;27;98503;-73
2023/06/08 06:30:30;;;;;;;;;;;;;;;29.59;32.21;100706.97;4989059;27;99991;-69
2023/06/08 06:32:57;;;;;;;;;;;;;;;30.99;30.96;100710.69;4990406;27;98391;-73
2023/06/08 06:35:23;;;;;;;;;;;;;;;31.16;31.00;100703.47;4983956;27;98593;-69
2023/06/08 06:37:53;;;;;;;;;;;;;;;30.93;31.47;100706.75;4999222;27;98415;-73
2023/06/08 06:40:19;;;;;;;;;;;;;;;30.99;31.54;100710.69;5001810;27;97872;-74
2023/06/08 06:42:47;;;;;;;;;;;;;;;30.95;31.61;100709.13;4988183;27;98397;-73
2023/06/08 06:45:14;;;;;;;;;;;;;;;30.43;31.98;100703.97;4980637;27;97918;-73
2023/06/08 06:47:40;;;;;;;;;;;;;;;29.83;32.60;100708.25;4990067;27;98008;-69
2023/06/08 06:50:07;;;;;;;;;;;;;;;29.50;32.84;100712.06;4984293;27;100452;-69
2023/06/08 06:52:34;;;;;;;;;;;;;;;29.37;32.62;100702.50;4986429;27;98509;-73
2023/06/08 06:55:03;;;;;;;;;;;;;;;29.11;33.02;100717.41;4989800;27;98188;-69
2023/06/08 06:57:31;;;;;;;;;;;;;;;28.81;33.09;100712.06;4988817;27;98562;-73
2023/06/08 06:59:59;;;;;;;;;;;;;;;28.41;33.33;100710.13;4989295;27;98469;-69
2023/06/08 07:02:28;;;;;;;;;;;;;;;28.07;33.87;100707.44;4990637;27;98932;-73
2023/06/08 07:04:58;;;;;;;;;;;;;;;27.74;33.79;100706.28;4984156;27;98032;-73
2023/06/08 07:07:26;;;;;;;;;;;;;;;27.44;33.85;100711.81;4990058;27;98192;-69
2023/06/08 07:09:53;;;;;;;;;;;;;;;27.23;33.94;100703.22;4984188;27;99336;-69
2023/06/08 07:12:20;;;;;;;;;;;;;;;27.12;34.04;100705.88;4986816;27;98089;-72
2023/06/08 07:14:46;;;;;;;;;;;;;;;27.16;33.91;100699.22;4991451;27;98427;-69
2023/06/08 07:17:12;;;;;;;;;;;;;;;28.14;32.91;100700.00;4984080;27;98134;-72
2023/06/08 07:19:39;;;;;;;;;;;;;;;29.08;31.94;100705.13;4990663;27;98239;-72
2023/06/08 07:22:06;;;;;;;;;;;;;;;29.77;31.57;100709.78;4986802;27;98039;-72
2023/06/08 07:24:33;;;;;;;;;;;;;;;30.59;31.27;100702.78;4990555;27;98369;-72
2023/06/08 07:26:59;;;;;;;;;;;;;;;31.11;31.08;100703.13;4989950;27;98234;-70
2023/06/08 07:29:26;;;;;;;;;;;;;;;31.26;30.99;100711.03;4984395;27;98140;-72
2023/06/08 07:31:56;;;;;;;;;;;;;;;32.17;30.79;100703.84;4991654;27;98851;-73
2023/06/08 07:34:23;;;;;;;;;;;;;;;32.29;30.55;100697.75;5004919;27;99313;-70
2023/06/08 07:36:49;;;;;;;;;;;;;;;33.39;30.07;100703.50;4990252;27;99004;-72
2023/06/08 07:39:16;;;;;;;;;;;;;;;34.21;29.99;100699.59;4994805;27;98325;-70
2023/06/08 07:41:42;;;;;;;;;;;;;;;34.73;29.50;100712.31;4991340;27;98646;-71
2023/06/08 07:44:09;;;;;;;;;;;;;;;35.17;29.31;100709.13;5008546;27;98237;-71
2023/06/08 07:46:38;;;;;;;;;;;;;;;35.24;29.64;100708.16;4990587;27;98402;-70
2023/06/08 07:49:05;;;;;;;;;;;;;;;36.09;29.09;100711.16;4992394;27;97827;-71
2023/06/08 07:51:32;;;;;;;;;;;;;;;36.18;29.06;100704.16;4991415;27;99731;-72
2023/06/08 07:53:58;;;;;;;;;;;;;;;37.06;28.38;100714.31;4993844;27;98139;-71
2023/06/08 07:56:25;;;;;;;;;;;;;;;37.82;28.37;100708.91;4986950;27;98088;-72
2023/06/08 07:58:51;;;;;;;;;;;;;;;38.65;27.98;100709.84;4987744;27;98439;-72
2023/06/08 08:01:18;;;;;;;;;;;;;;;39.35;27.96;100709.81;4985606;27;98069;-71
2023/06/08 08:03:45;;;;;;;;;;;;;;;39.91;27.89;100703.19;4990691;27;98274;-71
2023/06/08 08:06:14;;;;;;;;;;;;;;;40.54;27.54;100710.25;5003440;27;98947;-71
2023/06/08 08:08:42;;;;;;;;;;;;;;;41.12;27.41;100702.94;4991709;27;98026;-71
2023/06/08 08:11:10;;;;;;;;;;;;;;;41.72;27.51;100698.53;4991916;27;98121;-71
2023/06/08 08:13:38;;;;;;;;;;;;;;;42.25;27.02;100693.13;5001243;27;98068;-71
2023/06/08 08:16:05;;;;;;;;;;;;;;;42.78;26.74;100697.31;4991815;27;98129;-71
2023/06/08 08:18:32;;;;;;;;;;;;;;;43.45;26.88;100703.41;5009941;27;98549;-71
2023/06/08 08:20:58;;;;;;;;;;;;;;;43.96;26.65;100694.47;4991527;27;98466;-72
2023/06/08 08:23:25;;;;;;;;;;;;;;;41.89;28.57;100692.03;4991591;27;98094;-71
2023/06/08 08:25:51;;;;;;;;;;;;;;;40.03;29.54;100687.41;5012687;27;97788;-72
2023/06/08 08:28:18;;;;;;;;;;;;;;;38.73;30.09;100679.41;4988277;27;98433;-71
2023/06/08 08:30:45;;;;;;;;;;;;;;;38.47;29.90;100678.69;4992696;27;99317;-71
2023/06/08 08:33:15;;;;;;;;;;;;;;;38.81;29.40;100686.38;4990630;27;98876;-71
2023/06/08 08:35:42;;;;;;;;;;;;;;;38.18;29.66;100673.22;4996897;27;98402;-71
2023/06/08 08:38:09;;;;;;;;;;;;;;;39.57;28.89;100690.00;4991532;27;99233;-72
2023/06/08 08:40:37;;;;;;;;;;;;;;;40.66;28.14;100695.25;4989651;27;98324;-71
2023/06/08 08:43:10;;;;;;;;;;;;;;;39.94;28.88;100688.94;4999425;27;98233;-71
2023/06/08 08:45:36;;;;;;;;;;;;;;;42.09;27.40;100693.50;5023311;27;98135;-72
2023/06/08 08:48:04;;;;;;;;;;;;;;;43.24;26.65;100682.72;4990938;27;98078;-71
2023/06/08 08:50:34;;;;;;;;;;;;;;;44.11;26.42;100680.22;4999937;27;98438;-72
2023/06/08 08:53:01;;;;;;;;;;;;;;;44.52;26.32;100683.06;4984774;27;98209;-72
2023/06/08 08:55:28;;;;;;;;;;;;;;;43.76;27.31;100674.53;4994064;27;97811;-72
2023/06/08 08:58:01;;;;;;;;;;;;;;;43.90;26.92;100679.41;5001504;27;98059;-71
2023/06/08 09:00:31;;;;;;;;;;;;;;;43.90;27.01;100678.63;4990590;27;98530;-72
2023/06/08 09:02:57;;;;;;;;;;;;;;;41.89;28.75;100663.75;4993150;27;98704;-72
2023/06/08 09:05:23;;;;;;;;;;;;;;;40.69;29.55;100666.06;5002250;27;98917;-72
2023/06/08 09:07:56;;;;;;;;;;;;;;;40.11;29.68;100668.94;5006555;27;98294;-72
2023/06/08 09:10:25;;;;;;;;;;;;;;;39.55;29.71;100662.28;5002541;27;98349;-72
2023/06/08 09:12:54;;;;;;;;;;;;;;;41.11;28.48;100658.97;4990470;27;100653;-71
2023/06/08 09:15:36;;;;;;;;;;;;;;;43.10;26.64;100670.88;5004141;27;98216;-72
2023/06/08 09:18:21;;;;;;;;;;;;;;;42.29;27.44;100656.94;4994666;27;99482;-72
2023/06/08 09:20:47;;;;;;;;;;;;;;;40.56;29.07;100651.34;5009188;27;98132;-72
2023/06/08 09:23:24;;;;;;;;;;;;;;;40.49;28.96;100658.03;4992888;27;98274;-72
2023/06/08 09:25:52;;;;;;;;;;;;;;;39.78;29.45;100651.78;4994547;27;98482;-72
2023/06/08 09:28:24;;;;;;;;;;;;;;;39.65;29.46;100649.00;4990580;27;97984;-71
2023/06/08 09:30:51;;;;;;;;;;;;;;;40.09;28.88;100638.38;4989777;27;98159;-71
2023/06/08 09:33:27;;;;;;;;;;;;;;;40.09;28.92;100646.84;4989274;27;98194;-72
2023/06/08 09:35:57;;;;;;;;;;;;;;;42.00;27.59;100651.13;5004171;27;98196;-73
2023/06/08 09:38:26;;;;;;;;;;;;;;;42.91;27.17;100655.31;5020616;27;97909;-72
2023/06/08 09:41:11;;;;;;;;;;;;;;;41.53;28.10;100650.53;5005397;27;97904;-72
2023/06/08 09:43:38;;;;;;;;;;;;;;;43.21;27.13;100649.69;5003255;27;99576;-72
2023/06/08 09:46:05;;;;;;;;;;;;;;;44.44;26.16;100659.22;5001618;27;98120;-72
2023/06/08 09:48:32;;;;;;;;;;;;;;;45.20;25.68;100653.31;5003520;27;97843;-72
2023/06/08 09:51:01;;;;;;;;;;;;;;;45.71;25.70;100649.59;5002997;27;98185;-72
2023/06/08 09:53:28;;;;;;;;;;;;;;;46.08;25.90;100643.06;5004990;27;98118;-72
2023/06/08 09:55:58;;;;;;;;;;;;;;;46.37;25.70;100641.13;4983648;27;97949;-72
2023/06/08 09:58:27;;;;;;;;;;;;;;;46.75;25.31;100636.84;4989151;27;97906;-72
2023/06/08 10:01:00;;;;;;;;;;;;;;;46.97;25.36;100633.28;5003527;27;98208;-72
2023/06/08 10:03:31;;;;;;;;;;;;;;;47.46;25.17;100639.47;5002258;27;98186;-72
2023/06/08 10:05:58;;;;;;;;;;;;;;;47.67;25.42;100632.16;5007050;27;98703;-72
2023/06/08 10:08:26;;;;;;;;;;;;;;;47.82;25.52;100633.97;4991191;27;100170;-72
2023/06/08 10:10:52;;;;;;;;;;;;;;;47.96;25.38;100624.31;5008287;27;98354;-72
2023/06/08 10:13:19;;;;;;;;;;;;;;;48.21;25.38;100630.97;4987197;27;98094;-73
2023/06/08 10:15:46;;;;;;;;;;;;;;;48.23;25.47;100622.69;4988487;27;99939;-72
2023/06/08 10:18:14;;;;;;;;;;;;;;;48.41;25.34;100622.06;4985031;27;116733;-72
2023/06/08 10:20:41;;;;;;;;;;;;;;;48.46;25.50;100617.63;4980996;27;98357;-69
2023/06/08 10:23:07;;;;;;;;;;;;;;;48.48;25.61;100612.16;5000129;27;99401;-70
2023/06/08 10:25:34;;;;;;;;;;;;;;;48.45;25.72;100604.63;4988818;27;98809;-70
2023/06/08 10:28:05;;;;;;;;;;;;;;;48.39;25.61;100603.88;4992206;27;97916;-70
2023/06/08 10:30:41;;;;;;;;;;;;;;;48.05;25.98;100595.50;4988580;27;97925;-70
2023/06/08 10:33:21;;;;;;;;;;;;;;;45.52;28.00;100586.63;4989747;27;98313;-69
2023/06/08 10:36:06;;;;;;;;;;;;;;;44.86;28.02;100590.47;5004162;27;98698;-70
2023/06/08 10:38:38;;;;;;;;;;;;;;;46.01;26.83;100590.25;5001627;27;99413;-69
2023/06/08 10:41:05;;;;;;;;;;;;;;;46.49;26.43;100580.81;4987557;27;98207;-70
2023/06/08 10:43:32;;;;;;;;;;;;;;;46.60;26.56;100579.31;4984401;27;99238;-70
2023/06/08 10:45:59;;;;;;;;;;;;;;;46.14;27.07;100574.75;4999882;27;98464;-70
2023/06/08 10:48:34;;;;;;;;;;;;;;;45.77;27.25;100569.94;5013960;27;98097;-69
2023/06/08 10:51:01;;;;;;;;;;;;;;;46.41;26.29;100576.91;4990257;27;98052;-70
2023/06/08 10:53:59;;;;;;;;;;;;;;;46.74;25.95;100575.47;4990706;27;98357;-70
2023/06/08 10:56:30;;;;;;;;;;;;;;;46.48;26.33;100564.25;4991704;27;97972;-72
2023/06/08 10:58:57;;;;;;;;;;;;;;;46.68;26.53;100563.25;4984599;27;98945;-72
2023/06/08 11:01:31;;;;;;;;;;;;;;;46.87;26.00;100555.75;5004293;27;98302;-72
2023/06/08 11:03:58;;;;;;;;;;;;;;;46.81;26.10;100560.69;5011116;27;98143;-72
2023/06/08 11:06:24;;;;;;;;;;;;;;;46.97;26.16;100550.63;4993295;27;98225;-72
2023/06/08 11:08:50;;;;;;;;;;;;;;;46.64;26.54;100542.81;5003524;27;125485;-72
2023/06/08 11:11:17;;;;;;;;;;;;;;;46.48;26.39;100550.78;4991289;27;98181;-73
2023/06/08 11:13:44;;;;;;;;;;;;;;;46.44;26.48;100540.94;4993497;27;98719;-72
2023/06/08 11:16:10;;;;;;;;;;;;;;;46.13;26.60;100533.34;4986337;27;98083;-73
2023/06/08 11:18:36;;;;;;;;;;;;;;;45.31;26.79;100522.59;4989566;27;99498;-72
2023/06/08 11:21:03;;;;;;;;;;;;;;;44.68;27.26;100519.81;5003844;27;98019;-72
2023/06/08 11:23:32;;;;;;;;;;;;;;;42.64;28.91;100518.34;4991465;27;97985;-72
2023/06/08 11:25:59;;;;;;;;;;;;;;;42.36;28.67;100514.22;5021300;27;99364;-72
2023/06/08 11:28:26;;;;;;;;;;;;;;;42.63;28.08;100513.16;4988037;27;98147;-71
2023/06/08 11:30:53;;;;;;;;;;;;;;;42.56;27.97;100508.66;4989468;27;98565;-72
2023/06/08 11:33:20;;;;;;;;;;;;;;;42.20;27.86;100515.44;5004840;27;98119;-71
2023/06/08 11:35:51;;;;;;;;;;;;;;;41.94;27.99;100518.03;4990078;27;98209;-72
2023/06/08 11:38:17;;;;;;;;;;;;;;;42.36;27.84;100511.38;4995535;27;98155;-72
2023/06/08 11:40:43;;;;;;;;;;;;;;;42.46;27.54;100515.69;5000079;27;98919;-72
2023/06/08 11:43:12;;;;;;;;;;;;;;;42.42;27.95;100501.72;4987221;27;97997;-73
2023/06/08 11:45:39;;;;;;;;;;;;;;;42.45;27.95;100488.66;5006130;27;98237;-75
2023/06/08 11:48:06;;;;;;;;;;;;;;;42.44;27.75;100489.91;4993000;27;97915;-75
2023/06/08 11:50:32;;;;;;;;;;;;;;;42.50;27.67;100484.34;5004216;27;98756;-76
2023/06/08 11:53:04;;;;;;;;;;;;;;;42.43;27.45;100488.34;4994940;27;97894;-77
2023/06/08 11:55:32;;;;;;;;;;;;;;;42.76;27.79;100493.03;5002798;27;98363;-74
2023/06/08 11:58:00;;;;;;;;;;;;;;;42.77;27.42;100486.13;4989938;27;98098;-74
2023/06/08 12:00:33;;;;;;;;;;;;;;;41.22;28.85;100481.97;4993652;27;98441;-75
2023/06/08 12:03:00;;;;;;;;;;;;;;;40.24;29.50;100481.31;4988298;27;97977;-74
2023/06/08 12:05:33;;;;;;;;;;;;;;;40.51;28.75;100482.53;4993012;27;98141;-75
2023/06/08 12:08:11;;;;;;;;;;;;;;;41.31;28.05;100480.41;4993029;27;98235;-77
2023/06/08 12:10:41;;;;;;;;;;;;;;;41.29;28.11;100483.69;4994708;27;98396;-77
2023/06/08 12:13:11;;;;;;;;;;;;;;;41.02;28.31;100481.78;5004401;27;98110;-73
2023/06/08 12:15:45;;;;;;;;;;;;;;;40.24;28.79;100484.13;4990489;27;98255;-75
2023/06/08 12:18:12;;;;;;;;;;;;;;;39.85;28.96;100479.41;4989923;27;98515;-74
2023/06/08 12:20:40;;;;;;;;;;;;;;;39.63;28.91;100477.50;4983223;27;98611;-75
2023/06/08 12:23:06;;;;;;;;;;;;;;;39.60;28.92;100477.66;4991222;27;98068;-75
2023/06/08 12:25:35;;;;;;;;;;;;;;;39.34;28.93;100477.13;4990720;27;99411;-74
2023/06/08 12:28:02;;;;;;;;;;;;;;;39.21;29.26;100480.03;5006073;27;98196;-76
2023/06/08 12:30:30;;;;;;;;;;;;;;;39.39;28.51;100477.31;5006953;27;101577;-75
2023/06/08 12:32:58;;;;;;;;;;;;;;;39.47;28.85;100472.94;4989250;27;99778;-75
2023/06/08 12:35:25;;;;;;;;;;;;;;;39.43;28.77;100475.13;4989739;27;99772;-74
2023/06/08 12:37:51;;;;;;;;;;;;;;;39.11;28.57;100475.66;4985049;27;98047;-75
2023/06/08 12:40:18;;;;;;;;;;;;;;;38.77;29.04;100474.53;4991024;27;98453;-74